Meishomaru — JD3044 — position and weather

sailwx.info

Track history (hours):
 
Tides and Currents Weather Stations Pressure Air Temp Water Temp Dewpoint Dewpoint Depression Visibility Wind Speed Wind Dir Waves Ship Positions

Meishomaru

Last reported at 2014-Aug-25 23:07 UTC. Time now 2014-Aug-27 17:16 UTC.
Position N 34°12' E 132°14'.

Length 68 m; draft 3.7 m.

Type: Tanker. MMSI: 431001216.

Date/timePositionNaut miles runAvg speedWind from/ knotsBaromVisibWave heightAir tempDewpointWater temp
2014-Aug-25 23:07N 34°12' E 132°14'2 0.4
2014-Aug-25 18:25N 34°11' E 132°17'18 9.4
2014-Aug-25 16:28N 34°04' E 132°37'32410.3
2014-Aug-24 09:05N 34°47' E 139°06'712.3
2014-Aug-24 08:32N 34°53' E 139°10'1211.3
2014-Aug-24 07:30N 34°59' E 139°22'1111.6
2014-Aug-24 06:33N 35°04' E 139°34'1211.7
2014-Aug-24 05:33N 35°12' E 139°45'1010.4
2014-Aug-24 04:33N 35°22' E 139°42'1111.2
2014-Aug-24 03:33N 35°30' E 139°52'8 8.2
2014-Aug-24 02:32N 35°31' E 140°02'0 0.0
2014-Aug-24 01:29N 35°31' E 140°02'0 0.0
2014-Aug-24 00:26N 35°31' E 140°02'0 0.0
2014-Aug-23 23:32N 35°31' E 140°02'2 1.6
2014-Aug-23 22:33N 35°31' E 140°00'4 4.1
2014-Aug-23 21:29N 35°29' E 139°56'0 0.1
2014-Aug-23 20:32N 35°29' E 139°56'0 0.0
2014-Aug-23 19:32N 35°29' E 139°56'0 0.0
2014-Aug-23 03:29N 35°29' E 139°56'4 4.1
2014-Aug-23 02:33N 35°31' E 139°51'5 5.3
2014-Aug-23 01:33N 35°31' E 139°45'0 0.0
2014-Aug-23 00:33N 35°31' E 139°45'0 0.0
2014-Aug-22 23:27N 35°31' E 139°45'0 0.2
2014-Aug-22 22:33N 35°31' E 139°45'4 3.6
2014-Aug-22 21:32N 35°29' E 139°49'0 0.0
2014-Aug-22 20:32N 35°29' E 139°49'0 0.0
2014-Aug-22 19:32N 35°29' E 139°49'0 0.0
2014-Aug-22 18:29N 35°29' E 139°49'0 0.0
2014-Aug-22 17:32N 35°29' E 139°49'0 0.0
2014-Aug-22 16:32N 35°29' E 139°49'0 0.0
2014-Aug-22 15:32N 35°29' E 139°49'0 0.0
2014-Aug-22 14:32N 35°29' E 139°49'0 0.0
2014-Aug-22 13:29N 35°29' E 139°49'0 0.0
2014-Aug-22 12:32N 35°29' E 139°49'0 0.0
2014-Aug-22 11:31N 35°29' E 139°49'0 0.1
2014-Aug-22 10:34N 35°29' E 139°49'9 9.2
2014-Aug-22 09:34N 35°25' E 139°39'0 0.1
2014-Aug-22 08:33N 35°25' E 139°39'0 0.0
2014-Aug-22 07:33N 35°25' E 139°39'0 0.0
2014-Aug-22 06:33N 35°25' E 139°39'0 0.0
2014-Aug-22 05:33N 35°25' E 139°39'0 0.0
2014-Aug-22 04:33N 35°25' E 139°39'0 0.0
2014-Aug-22 03:33N 35°25' E 139°39'1 1.0
2014-Aug-22 02:33N 35°24' E 139°40'8 8.3
2014-Aug-22 01:33N 35°31' E 139°45'0 0.1
2014-Aug-22 00:30N 35°31' E 139°45'0 0.0
2014-Aug-21 23:30N 35°31' E 139°45'0 0.2
2014-Aug-21 22:33N 35°31' E 139°45'4 3.3
2014-Aug-21 21:28N 35°29' E 139°49'0 0.0
2014-Aug-21 20:31N 35°29' E 139°49'0 0.0
2014-Aug-21 19:31N 35°29' E 139°49'0 0.0
2014-Aug-21 18:31N 35°29' E 139°49'0 0.1
2014-Aug-21 17:31N 35°29' E 139°49'0 0.0
2014-Aug-21 16:31N 35°29' E 139°49'0 0.0
2014-Aug-21 15:31N 35°29' E 139°49'0 0.0
2014-Aug-21 14:31N 35°29' E 139°49'0 0.0
2014-Aug-21 13:31N 35°29' E 139°49'0 0.0
2014-Aug-21 12:31N 35°29' E 139°49'0 0.0
2014-Aug-21 11:31N 35°29' E 139°49'7 7.6
2014-Aug-21 10:33N 35°24' E 139°42'3 2.6
2014-Aug-21 09:33N 35°25' E 139°39'0 0.0
2014-Aug-21 08:33N 35°25' E 139°39'0 0.0
2014-Aug-21 07:24N 35°25' E 139°39'0 0.0
2014-Aug-21 06:30N 35°25' E 139°39'0 0.0
2014-Aug-21 05:33N 35°25' E 139°39'0 0.0
2014-Aug-21 04:33N 35°25' E 139°39'0 0.0
2014-Aug-21 03:33N 35°25' E 139°39'4 4.1
2014-Aug-21 02:33N 35°27' E 139°43'4 1.8
2014-Aug-21 00:15N 35°31' E 139°45'0 0.0
2014-Aug-20 23:33N 35°31' E 139°45'0 0.0
2014-Aug-20 22:33N 35°31' E 139°45'4 3.8
2014-Aug-20 21:32N 35°29' E 139°49'0 0.1
2014-Aug-20 20:32N 35°29' E 139°49'0 0.1
2014-Aug-20 19:32N 35°29' E 139°49'0 0.0
2014-Aug-20 18:32N 35°29' E 139°49'0 0.1
2014-Aug-20 17:32N 35°29' E 139°49'0 0.0
2014-Aug-20 16:32N 35°29' E 139°49'0 0.0
2014-Aug-20 15:32N 35°29' E 139°49'0 0.0
2014-Aug-20 14:32N 35°29' E 139°49'0 0.0
2014-Aug-20 13:32N 35°29' E 139°49'0 0.0
2014-Aug-20 12:32N 35°29' E 139°49'0 0.0
2014-Aug-20 11:32N 35°29' E 139°49'0 0.0
2014-Aug-20 10:32N 35°29' E 139°49'0 0.0
2014-Aug-20 09:32N 35°29' E 139°49'0 0.0
2014-Aug-20 08:29N 35°29' E 139°49'0 0.2
2014-Aug-20 07:33N 35°29' E 139°49'9 9.1
2014-Aug-20 06:33N 35°25' E 139°39'0 0.1
2014-Aug-20 05:27N 35°25' E 139°39'0 0.0
2014-Aug-20 04:33N 35°25' E 139°39'0 0.0
2014-Aug-20 03:33N 35°25' E 139°39'0 0.0
2014-Aug-20 02:33N 35°25' E 139°39'0 0.0
2014-Aug-20 01:33N 35°25' E 139°39'0 0.0
2014-Aug-20 00:33N 35°25' E 139°39'0 0.0
2014-Aug-19 23:33N 35°25' E 139°39'2 2.3
2014-Aug-19 22:33N 35°23' E 139°40'0 0.0
2014-Aug-19 21:31N 35°23' E 139°40'0 0.0
2014-Aug-19 20:31N 35°23' E 139°40'0 0.0
2014-Aug-19 19:31N 35°23' E 139°40'0 0.0
2014-Aug-19 18:31N 35°23' E 139°40'0 0.0
2014-Aug-19 17:31N 35°23' E 139°40'0 0.0
2014-Aug-19 16:31N 35°23' E 139°40'0 0.0
2014-Aug-19 15:31N 35°23' E 139°40'0 0.1
2014-Aug-19 14:31N 35°23' E 139°41'0 0.0
2014-Aug-19 13:31N 35°23' E 139°41'0 0.1
2014-Aug-19 12:33N 35°23' E 139°40'1010.4
2014-Aug-19 11:34N 35°14' E 139°47'1211.7
2014-Aug-19 10:33N 35°03' E 139°42'1612.9
2014-Aug-19 09:18N 34°53' E 139°26'22510.3
2014-Aug-18 11:30N 34°04' E 135°00'1211.5
2014-Aug-18 10:30N 34°15' E 134°59'9 9.6
2014-Aug-18 09:33N 34°23' E 135°03'1111.1
2014-Aug-18 08:33N 34°29' E 135°14'5 4.3
2014-Aug-18 07:17N 34°32' E 135°20'4 5.8
2014-Aug-18 06:33N 34°33' E 135°25'1 0.1
2014-Aug-18 00:32N 34°33' E 135°25'4 0.6
2014-Aug-17 18:13N 34°33' E 135°21'0 0.0
2014-Aug-17 14:19N 34°33' E 135°21'0 0.0
2014-Aug-17 13:25N 34°33' E 135°21'2 2.5
2014-Aug-17 12:33N 34°31' E 135°19'1212.3
2014-Aug-17 11:33N 34°24' E 135°07'1111.2
2014-Aug-17 10:34N 34°14' E 134°60'224 9.3
2014-Aug-16 10:31N 34°60' E 139°26'1212.3
2014-Aug-16 09:33N 35°06' E 139°38'1211.5
2014-Aug-16 08:33N 35°16' E 139°46'1010.4
2014-Aug-16 07:33N 35°26' E 139°45'1212.0
2014-Aug-16 06:33N 35°31' E 139°58'3 3.1
2014-Aug-16 05:29N 35°31' E 140°02'0 0.0
2014-Aug-16 04:23N 35°31' E 140°02'0 0.0
2014-Aug-16 03:32N 35°31' E 140°02'0 0.0
2014-Aug-16 02:32N 35°31' E 140°02'0 0.3
2014-Aug-16 01:33N 35°31' E 140°02'6 5.6
2014-Aug-16 00:33N 35°29' E 139°56'0 0.0
2014-Aug-15 23:33N 35°29' E 139°56'  
Track history (hours):
 
Tides and Currents Weather Stations Pressure Air Temp Water Temp Dewpoint Dewpoint Depression Visibility Wind Speed Wind Dir Waves Ship Positions

Meishomaru

Last reported at 2014-Aug-25 23:07 UTC. Time now 2014-Aug-27 17:16 UTC.
Position N 34°12' E 132°14'.

Length 68 m; draft 3.7 m.

Type: Tanker. MMSI: 431001216.

Date/timePositionNaut miles runAvg speedWind from/ knotsBaromVisibWave heightAir tempDewpointWater temp
2014-Aug-25 23:07N 34°12' E 132°14'2 0.4
2014-Aug-25 18:25N 34°11' E 132°17'18 9.4
2014-Aug-25 16:28N 34°04' E 132°37'32410.3
2014-Aug-24 09:05N 34°47' E 139°06'712.3
2014-Aug-24 08:32N 34°53' E 139°10'1211.3
2014-Aug-24 07:30N 34°59' E 139°22'1111.6
2014-Aug-24 06:33N 35°04' E 139°34'1211.7
2014-Aug-24 05:33N 35°12' E 139°45'1010.4
2014-Aug-24 04:33N 35°22' E 139°42'1111.2
2014-Aug-24 03:33N 35°30' E 139°52'8 8.2
2014-Aug-24 02:32N 35°31' E 140°02'0 0.0
2014-Aug-24 01:29N 35°31' E 140°02'0 0.0
2014-Aug-24 00:26N 35°31' E 140°02'0 0.0
2014-Aug-23 23:32N 35°31' E 140°02'2 1.6
2014-Aug-23 22:33N 35°31' E 140°00'4 4.1
2014-Aug-23 21:29N 35°29' E 139°56'0 0.1
2014-Aug-23 20:32N 35°29' E 139°56'0 0.0
2014-Aug-23 19:32N 35°29' E 139°56'0 0.0
2014-Aug-23 03:29N 35°29' E 139°56'4 4.1
2014-Aug-23 02:33N 35°31' E 139°51'5 5.3
2014-Aug-23 01:33N 35°31' E 139°45'0 0.0
2014-Aug-23 00:33N 35°31' E 139°45'0 0.0
2014-Aug-22 23:27N 35°31' E 139°45'0 0.2
2014-Aug-22 22:33N 35°31' E 139°45'4 3.6
2014-Aug-22 21:32N 35°29' E 139°49'0 0.0
2014-Aug-22 20:32N 35°29' E 139°49'0 0.0
2014-Aug-22 19:32N 35°29' E 139°49'0 0.0
2014-Aug-22 18:29N 35°29' E 139°49'0 0.0
2014-Aug-22 17:32N 35°29' E 139°49'0 0.0
2014-Aug-22 16:32N 35°29' E 139°49'0 0.0
2014-Aug-22 15:32N 35°29' E 139°49'0 0.0
2014-Aug-22 14:32N 35°29' E 139°49'0 0.0
2014-Aug-22 13:29N 35°29' E 139°49'0 0.0
2014-Aug-22 12:32N 35°29' E 139°49'0 0.0
2014-Aug-22 11:31N 35°29' E 139°49'0 0.1
2014-Aug-22 10:34N 35°29' E 139°49'9 9.2
2014-Aug-22 09:34N 35°25' E 139°39'0 0.1
2014-Aug-22 08:33N 35°25' E 139°39'0 0.0
2014-Aug-22 07:33N 35°25' E 139°39'0 0.0
2014-Aug-22 06:33N 35°25' E 139°39'0 0.0
2014-Aug-22 05:33N 35°25' E 139°39'0 0.0
2014-Aug-22 04:33N 35°25' E 139°39'0 0.0
2014-Aug-22 03:33N 35°25' E 139°39'1 1.0
2014-Aug-22 02:33N 35°24' E 139°40'8 8.3
2014-Aug-22 01:33N 35°31' E 139°45'0 0.1
2014-Aug-22 00:30N 35°31' E 139°45'0 0.0
2014-Aug-21 23:30N 35°31' E 139°45'0 0.2
2014-Aug-21 22:33N 35°31' E 139°45'4 3.3
2014-Aug-21 21:28N 35°29' E 139°49'0 0.0
2014-Aug-21 20:31N 35°29' E 139°49'0 0.0
2014-Aug-21 19:31N 35°29' E 139°49'0 0.0
2014-Aug-21 18:31N 35°29' E 139°49'0 0.1
2014-Aug-21 17:31N 35°29' E 139°49'0 0.0
2014-Aug-21 16:31N 35°29' E 139°49'0 0.0
2014-Aug-21 15:31N 35°29' E 139°49'0 0.0
2014-Aug-21 14:31N 35°29' E 139°49'0 0.0
2014-Aug-21 13:31N 35°29' E 139°49'0 0.0
2014-Aug-21 12:31N 35°29' E 139°49'0 0.0
2014-Aug-21 11:31N 35°29' E 139°49'7 7.6
2014-Aug-21 10:33N 35°24' E 139°42'3 2.6
2014-Aug-21 09:33N 35°25' E 139°39'0 0.0
2014-Aug-21 08:33N 35°25' E 139°39'0 0.0
2014-Aug-21 07:24N 35°25' E 139°39'0 0.0
2014-Aug-21 06:30N 35°25' E 139°39'0 0.0
2014-Aug-21 05:33N 35°25' E 139°39'0 0.0
2014-Aug-21 04:33N 35°25' E 139°39'0 0.0
2014-Aug-21 03:33N 35°25' E 139°39'4 4.1
2014-Aug-21 02:33N 35°27' E 139°43'4 1.8
2014-Aug-21 00:15N 35°31' E 139°45'0 0.0
2014-Aug-20 23:33N 35°31' E 139°45'0 0.0
2014-Aug-20 22:33N 35°31' E 139°45'4 3.8
2014-Aug-20 21:32N 35°29' E 139°49'0 0.1
2014-Aug-20 20:32N 35°29' E 139°49'0 0.1
2014-Aug-20 19:32N 35°29' E 139°49'0 0.0
2014-Aug-20 18:32N 35°29' E 139°49'0 0.1
2014-Aug-20 17:32N 35°29' E 139°49'0 0.0
2014-Aug-20 16:32N 35°29' E 139°49'0 0.0
2014-Aug-20 15:32N 35°29' E 139°49'0 0.0
2014-Aug-20 14:32N 35°29' E 139°49'0 0.0
2014-Aug-20 13:32N 35°29' E 139°49'0 0.0
2014-Aug-20 12:32N 35°29' E 139°49'0 0.0
2014-Aug-20 11:32N 35°29' E 139°49'0 0.0
2014-Aug-20 10:32N 35°29' E 139°49'0 0.0
2014-Aug-20 09:32N 35°29' E 139°49'0 0.0
2014-Aug-20 08:29N 35°29' E 139°49'0 0.2
2014-Aug-20 07:33N 35°29' E 139°49'9 9.1
2014-Aug-20 06:33N 35°25' E 139°39'0 0.1
2014-Aug-20 05:27N 35°25' E 139°39'0 0.0
2014-Aug-20 04:33N 35°25' E 139°39'0 0.0
2014-Aug-20 03:33N 35°25' E 139°39'0 0.0
2014-Aug-20 02:33N 35°25' E 139°39'0 0.0
2014-Aug-20 01:33N 35°25' E 139°39'0 0.0
2014-Aug-20 00:33N 35°25' E 139°39'0 0.0
2014-Aug-19 23:33N 35°25' E 139°39'2 2.3
2014-Aug-19 22:33N 35°23' E 139°40'0 0.0
2014-Aug-19 21:31N 35°23' E 139°40'0 0.0
2014-Aug-19 20:31N 35°23' E 139°40'0 0.0
2014-Aug-19 19:31N 35°23' E 139°40'0 0.0
2014-Aug-19 18:31N 35°23' E 139°40'0 0.0
2014-Aug-19 17:31N 35°23' E 139°40'0 0.0
2014-Aug-19 16:31N 35°23' E 139°40'0 0.0
2014-Aug-19 15:31N 35°23' E 139°40'0 0.1
2014-Aug-19 14:31N 35°23' E 139°41'0 0.0
2014-Aug-19 13:31N 35°23' E 139°41'0 0.1
2014-Aug-19 12:33N 35°23' E 139°40'1010.4
2014-Aug-19 11:34N 35°14' E 139°47'1211.7
2014-Aug-19 10:33N 35°03' E 139°42'1612.9
2014-Aug-19 09:18N 34°53' E 139°26'22510.3
2014-Aug-18 11:30N 34°04' E 135°00'1211.5
2014-Aug-18 10:30N 34°15' E 134°59'9 9.6
2014-Aug-18 09:33N 34°23' E 135°03'1111.1
2014-Aug-18 08:33N 34°29' E 135°14'5 4.3
2014-Aug-18 07:17N 34°32' E 135°20'4 5.8
2014-Aug-18 06:33N 34°33' E 135°25'1 0.1
2014-Aug-18 00:32N 34°33' E 135°25'4 0.6
2014-Aug-17 18:13N 34°33' E 135°21'0 0.0
2014-Aug-17 14:19N 34°33' E 135°21'0 0.0
2014-Aug-17 13:25N 34°33' E 135°21'2 2.5
2014-Aug-17 12:33N 34°31' E 135°19'1212.3
2014-Aug-17 11:33N 34°24' E 135°07'1111.2
2014-Aug-17 10:34N 34°14' E 134°60'224 9.3
2014-Aug-16 10:31N 34°60' E 139°26'1212.3
2014-Aug-16 09:33N 35°06' E 139°38'1211.5
2014-Aug-16 08:33N 35°16' E 139°46'1010.4
2014-Aug-16 07:33N 35°26' E 139°45'1212.0
2014-Aug-16 06:33N 35°31' E 139°58'3 3.1
2014-Aug-16 05:29N 35°31' E 140°02'0 0.0
2014-Aug-16 04:23N 35°31' E 140°02'0 0.0
2014-Aug-16 03:32N 35°31' E 140°02'0 0.0
2014-Aug-16 02:32N 35°31' E 140°02'0 0.3
2014-Aug-16 01:33N 35°31' E 140°02'6 5.6
2014-Aug-16 00:33N 35°29' E 139°56'0 0.0
2014-Aug-15 23:33N 35°29' E 139°56'  

Dump ship's entire track history